...

 METAR AND TAF INFORMATION
METAR FOR LIMF
ADDS - METARS form results

(2130 UTC 19 May 2019)
Data provider http://aviationweather.gov/metar/data/
 
METAR text: LIMF 192120Z 36005KT 7000 -RA SCT030 BKN050 12/12 Q1006 RERA
Conditions at: LIMF (TORINO/CASELLE , IT) observed 2120 UTC 19 May 2019
Temperature: 12.0°C (54°F)
Dewpoint: 12.0°C (54°F) [RH = 100%]
Pressure (altimeter): 29.70 inches Hg (1006.0 mb)
Winds: from the N (360 degrees) at 6 MPH (5 knots; 2.6 m/s)
Visibility: 4 miles ( 7 km)
Ceiling: 5000 feet AGL
Clouds: scattered clouds at 3000 feet AGL
broken clouds at 5000 feet AGL
Weather: -RA  (light rain)

METAR text: LIMF 192050Z 36003KT 7000 RA SCT025 BKN050 12/12 Q1006
Conditions at: LIMF (TORINO/CASELLE , IT) observed 2050 UTC 19 May 2019
Temperature: 12.0°C (54°F)
Dewpoint: 12.0°C (54°F) [RH = 100%]
Pressure (altimeter): 29.70 inches Hg (1006.0 mb)
Winds: from the N (360 degrees) at 3 MPH (3 knots; 1.5 m/s)
Visibility: 4 miles ( 7 km)
Ceiling: 5000 feet AGL
Clouds: scattered clouds at 2500 feet AGL
broken clouds at 5000 feet AGL
Weather: RA  (moderate rain)

Forecast for: LIMF (TORINO/CASELLE , IT)
Text: TAF LIMF 191700Z 1918/2018 VRB05KT 9999 SCT025 BKN050
Forecast period: 1800 UTC 19 May 2019 to 1800 UTC 20 May 2019
Forecast type: FROM: standard forecast or significant change
Winds: variable direction winds at 6 MPH (5 knots; 2.6 m/s)
Visibility: 6 or more miles 10+ km)
Ceiling: 5000 feet AGL
Clouds: scattered clouds at 2500 feet AGL
broken clouds at 5000 feet AGL
Weather: no significant weather forecast for this period
Text: TEMPO 1918/2009 4000 RA
Forecast period: 1800 UTC 19 May 2019 to 0900 UTC 20 May 2019
Forecast type: TEMPORARY: The following changes expected for less than half the time period
Visibility: 2.49 miles (4.01 km)
Ceiling: unknown
Clouds: missing
Weather: RA  (moderate rain)

 AIRPORT MAP

 RUNWAY INFORMATION
Runway 18 Runway length 10827 ft Runway width 197 ft
Runway elevation 981 ft Runway displaced threshold 2378 ft Runway heading 183
Runway 36 Runway length 10827 ft Runway width 197 ft
Runway elevation 933 ft Runway displaced threshold 1148 ft Runway heading 3

 AIRPORT FREQUENCIES
Type APP Name APP Frequency 23.44 MHZ
Type APP Name APP Frequency 129.275 MHZ
Type ATIS Name ATIS Frequency 120.475 MHZ
Type GND Name GND Frequency 121.7 MHZ
Type TWR Name TWR Frequency 118.5 MHZ

 AIRPORT NEAR NAVIGATION AIDS
Type TACAN Name Caselle Frequency 109500 KHZ
Type NDB Name Caselle Frequency 357 KHZ
Type VOR-DME Name Caselle Frequency 116750 KHZ
Type VOR-DME Name Torino Frequency 114500 KHZ
Type NDB Name Torino Frequency 393 KHZ